Time;durP1;ratioP1;P1;durP2;ratioP2;P2;SDS_P1;SDS_P2;PMS_P1;PMS_P2;Temp;Humidity;BMP_temperature;BMP_pressure;BME280_temperature;BME280_humidity;BME280_pressure;Samples;Min_cycle;Max_cycle;Signal;HPM_P1;HPM_P2
2022/01/16 00:01:35;;;;;;;79.97;34.33;;;;;;;-142.75;100.00;79102.56;4991028;28;20328;-68
2022/01/16 00:04:06;;;;;;;92.53;37.20;;;;;;;-142.75;100.00;79120.28;4972104;28;20806;-68
2022/01/16 00:06:36;;;;;;;97.63;38.90;;;;;;;-142.75;100.00;79102.56;4988671;28;20022;-68
2022/01/16 00:09:04;;;;;;;87.03;35.17;;;;;;;-142.75;100.00;79106.50;4988257;28;20030;-68
2022/01/16 00:11:29;;;;;;;95.57;37.97;;;;;;;-142.75;100.00;79098.63;4973242;28;20109;-68
2022/01/16 00:13:55;;;;;;;98.00;37.38;;;;;;;-142.75;100.00;79104.53;4990238;28;20126;-68
2022/01/16 00:16:20;;;;;;;89.18;36.05;;;;;;;-142.75;100.00;79118.31;4989717;28;20027;-68
2022/01/16 00:19:03;;;;;;;95.20;37.90;;;;;;;-142.75;100.00;79114.38;4989830;28;20096;-68
2022/01/16 00:21:35;;;;;;;94.67;37.07;;;;;;;-142.75;100.00;79102.56;4989407;28;20034;-68
2022/01/16 00:24:01;;;;;;;90.67;36.63;;;;;;;-142.75;100.00;79094.69;4988975;28;20080;-68
2022/01/16 00:26:26;;;;;;;92.30;37.15;;;;;;;-142.75;100.00;79084.81;4989169;28;20031;-68
2022/01/16 00:28:52;;;;;;;85.55;35.55;;;;;;;-142.75;100.00;79086.78;4988132;28;20472;-68
2022/01/16 00:31:19;;;;;;;91.97;38.53;;;;;;;-142.75;100.00;79076.94;4989526;28;20040;-68
2022/01/16 00:33:45;;;;;;;99.40;37.17;;;;;;;-142.75;100.00;79080.88;4989520;28;20030;-68
2022/01/16 00:36:12;;;;;;;93.22;37.17;;;;;;;-142.75;100.00;79076.94;4972019;28;20041;-68
2022/01/16 00:38:43;;;;;;;110.97;39.10;;;;;;;-142.75;100.00;79073.00;4988954;28;20026;-68
2022/01/16 00:41:09;;;;;;;110.80;39.93;;;;;;;-142.75;100.00;79065.13;4988379;28;20030;-68
2022/01/16 00:43:34;;;;;;;107.85;40.17;;;;;;;-142.75;100.00;79063.16;4989183;28;20041;-68
2022/01/16 00:46:00;;;;;;;115.05;40.50;;;;;;;-142.75;100.00;79071.03;4989429;28;20030;-68
2022/01/16 00:48:25;;;;;;;121.43;42.50;;;;;;;-142.75;100.00;79067.09;4988988;28;20027;-68
2022/01/16 00:50:50;;;;;;;122.93;40.05;;;;;;;-142.75;100.00;79071.03;4989383;28;20265;-67
2022/01/16 00:53:16;;;;;;;119.10;38.85;;;;;;;-142.75;100.00;79047.41;4989010;28;20062;-67
2022/01/16 00:55:41;;;;;;;108.93;38.70;;;;;;;-142.75;100.00;79047.41;4989421;28;20050;-67
2022/01/16 00:58:07;;;;;;;127.85;42.08;;;;;;;-142.75;100.00;79035.59;4989437;28;20394;-68
2022/01/16 01:00:33;;;;;;;121.68;41.80;;;;;;;-142.75;100.00;79009.97;4989372;28;20077;-68
2022/01/16 01:03:00;;;;;;;129.57;41.88;;;;;;;-142.75;100.00;79006.03;4989261;28;20032;-68
2022/01/16 01:05:25;;;;;;;121.87;42.13;;;;;;;-142.75;100.00;79006.03;4970307;28;20081;-68
2022/01/16 01:07:50;;;;;;;128.15;41.53;;;;;;;-142.75;100.00;79008.00;4992396;28;20030;-68
2022/01/16 01:10:18;;;;;;;128.20;40.92;;;;;;;-142.75;100.00;79008.00;4995412;28;20026;-68
2022/01/16 01:12:53;;;;;;;134.37;42.87;;;;;;;-142.75;100.00;78996.19;4995592;28;20019;-68
2022/01/16 01:15:21;;;;;;;132.03;42.77;;;;;;;-142.75;100.00;79017.84;4995543;28;20555;-68
2022/01/16 01:17:48;;;;;;;134.93;44.33;;;;;;;-142.75;100.00;79011.94;4976506;28;20110;-68
2022/01/16 01:20:17;;;;;;;157.03;46.13;;;;;;;-142.75;100.00;79027.69;4996545;28;20089;-68
2022/01/16 01:22:45;;;;;;;176.80;44.97;;;;;;;-142.75;100.00;79015.88;4995878;28;20105;-68
2022/01/16 01:25:14;;;;;;;164.27;44.70;;;;;;;-142.75;100.00;79015.88;4996401;28;20716;-68
2022/01/16 01:27:41;;;;;;;164.23;46.17;;;;;;;-142.75;100.00;79011.94;4994625;28;20029;-68
2022/01/16 01:30:18;;;;;;;163.80;47.50;;;;;;;-142.75;100.00;79021.78;4995179;28;20034;-68
2022/01/16 01:32:46;;;;;;;167.70;46.10;;;;;;;-142.75;100.00;79017.84;4996444;28;20153;-68
2022/01/16 01:35:14;;;;;;;190.70;46.80;;;;;;;-142.75;100.00;79023.75;4977453;28;20014;-68
2022/01/16 01:37:40;;;;;;;154.83;47.47;;;;;;;-142.75;100.00;79011.94;4994968;28;20396;-68
2022/01/16 01:40:10;;;;;;;158.23;48.67;;;;;;;-142.75;100.00;78972.56;4997799;28;20030;-68
2022/01/16 01:42:43;;;;;;;158.07;47.73;;;;;;;-142.75;100.00;78946.94;4994870;28;20526;-68
2022/01/16 01:53:22;;;;;;;172.10;50.30;;;;;;;-142.75;100.00;78948.91;5037275;28;20035;-67
2022/01/16 01:55:48;;;;;;;161.48;50.60;;;;;;;-142.75;100.00;78950.88;5019252;28;20402;-69
2022/01/16 01:58:16;;;;;;;164.00;50.97;;;;;;;-142.75;100.00;78941.03;5036911;28;20079;-66
2022/01/16 02:00:42;;;;;;;163.93;49.97;;;;;;;-142.75;100.00;78946.94;5018382;28;20025;-67
2022/01/16 02:06:02;;;;;;;138.60;48.30;;;;;;;-142.75;100.00;78964.69;5013114;28;20411;-66
2022/01/16 02:08:28;;;;;;;138.90;49.63;;;;;;;-142.75;100.00;78966.66;5036500;28;20026;-66
2022/01/16 02:10:56;;;;;;;128.93;47.65;;;;;;;-142.75;100.00;78970.59;5036705;28;20033;-68
2022/01/16 02:13:29;;;;;;;126.23;48.80;;;;;;;-142.75;100.00;78968.63;5036763;28;20032;-67
2022/01/16 02:32:46;;;;;;;107.32;44.72;;;;;;;-142.75;100.00;78964.69;5033411;28;20038;-67
2022/01/16 02:34:41;;;;;;;108.97;44.50;;;;;;;-142.75;100.00;78980.44;5024767;28;20036;-67
2022/01/16 02:37:10;;;;;;;102.60;44.10;;;;;;;-142.75;100.00;78972.56;5015334;28;20064;-67
2022/01/16 02:39:41;;;;;;;99.77;45.20;;;;;;;-142.75;100.00;78966.66;5032891;28;20483;-67
2022/01/16 02:42:10;;;;;;;100.60;44.57;;;;;;;-142.75;100.00;78966.66;5015484;28;20018;-68
2022/01/16 02:44:46;;;;;;;94.73;42.50;;;;;;;-142.75;100.00;78962.69;5033071;28;20025;-67
2022/01/16 02:47:19;;;;;;;98.93;43.53;;;;;;;-142.75;100.00;78962.69;5032821;28;20044;-68
2022/01/16 02:49:49;;;;;;;93.37;43.87;;;;;;;-142.75;100.00;78960.72;5032770;28;20300;-67
2022/01/16 02:52:17;;;;;;;91.83;42.53;;;;;;;-142.75;100.00;78948.91;5033106;28;20109;-67
2022/01/16 02:54:45;;;;;;;90.10;42.63;;;;;;;-142.75;100.00;78952.84;5030585;28;20017;-67
2022/01/16 02:57:13;;;;;;;88.80;40.63;;;;;;;-142.75;100.00;78943.00;5052694;28;20448;-67
2022/01/16 02:59:40;;;;;;;88.93;40.73;;;;;;;-142.75;100.00;78933.16;5052319;28;20025;-67
2022/01/16 03:02:06;;;;;;;78.50;38.67;;;;;;;-142.75;100.00;78927.25;5052598;28;20025;-67
2022/01/16 03:04:32;;;;;;;83.40;39.28;;;;;;;-142.75;100.00;78923.31;5052624;28;20497;-67
2022/01/16 03:07:02;;;;;;;84.55;39.60;;;;;;;-142.75;100.00;78917.41;5034574;28;20067;-66
2022/01/16 03:09:37;;;;;;;84.27;41.37;;;;;;;-142.75;100.00;78909.53;5034436;28;20036;-67
2022/01/16 03:12:07;;;;;;;83.70;40.73;;;;;;;-142.75;100.00;78917.41;5032648;28;20021;-68
2022/01/16 03:14:33;;;;;;;81.63;39.43;;;;;;;-142.75;100.00;78919.38;5014805;28;20025;-67
2022/01/16 03:16:58;;;;;;;80.95;40.88;;;;;;;-142.75;100.00;78923.31;5032509;28;20017;-67
2022/01/16 03:22:07;;;;;;;78.47;39.03;;;;;;;-142.75;100.00;78937.09;5032537;28;20099;-67
2022/01/16 03:24:37;;;;;;;89.82;41.25;;;;;;;-142.75;100.00;78921.34;5032255;28;20029;-67
2022/01/16 03:27:09;;;;;;;80.30;38.60;;;;;;;-142.75;100.00;78923.31;5032174;28;20108;-67
2022/01/16 03:29:35;;;;;;;76.33;37.97;;;;;;;-142.75;100.00;78937.09;5031906;28;20433;-68
2022/01/16 03:32:02;;;;;;;78.45;39.25;;;;;;;-142.75;100.00;78939.06;5032023;28;20033;-67
2022/01/16 03:34:27;;;;;;;79.93;37.63;;;;;;;-142.75;100.00;78929.22;5032135;28;20022;-67
2022/01/16 03:36:53;;;;;;;71.50;37.90;;;;;;;-142.75;100.00;78931.19;5031988;28;20030;-67
2022/01/16 03:39:20;;;;;;;72.72;37.25;;;;;;;-142.75;100.00;78937.09;5031796;28;20037;-67
2022/01/16 03:41:45;;;;;;;75.20;37.93;;;;;;;-142.75;100.00;78941.03;5031992;28;20478;-67
2022/01/16 03:44:10;;;;;;;81.75;39.90;;;;;;;-142.75;100.00;78939.06;5032001;28;20021;-67
2022/01/16 03:46:41;;;;;;;75.88;38.53;;;;;;;-142.75;100.00;78939.06;5031700;28;20025;-67
2022/01/16 03:49:12;;;;;;;75.53;39.60;;;;;;;-142.75;100.00;78939.06;5031664;28;20064;-67
2022/01/16 03:51:39;;;;;;;75.07;38.40;;;;;;;-142.75;100.00;78952.84;5013998;28;20120;-67
2022/01/16 03:54:07;;;;;;;78.13;38.53;;;;;;;-142.75;100.00;78941.03;5014289;28;20431;-67
2022/01/16 03:56:32;;;;;;;71.93;38.67;;;;;;;-142.75;100.00;78944.97;5031622;28;20029;-67
2022/01/16 03:58:58;;;;;;;72.10;37.33;;;;;;;-142.75;100.00;78937.09;5013761;28;20499;-67
2022/01/16 04:01:26;;;;;;;67.55;37.50;;;;;;;-142.75;100.00;78952.84;5031588;28;20024;-67
2022/01/16 04:03:53;;;;;;;71.93;36.73;;;;;;;-142.75;100.00;78964.69;5031538;28;20033;-68
2022/01/16 04:06:20;;;;;;;76.03;38.43;;;;;;;-142.75;100.00;78968.63;5031395;28;20025;-67
2022/01/16 04:08:46;;;;;;;68.97;36.40;;;;;;;-142.75;100.00;78964.69;5013407;28;20483;-67
2022/01/16 04:11:12;;;;;;;71.90;37.77;;;;;;;-142.75;100.00;78956.78;5013782;28;20030;-67
2022/01/16 04:13:43;;;;;;;71.60;37.50;;;;;;;-142.75;100.00;78960.72;5031427;28;20513;-67
2022/01/16 04:16:09;;;;;;;70.23;37.77;;;;;;;-142.75;100.00;78956.78;5013620;28;20026;-67
2022/01/16 04:18:34;;;;;;;75.55;38.53;;;;;;;-142.75;100.00;78956.78;5031053;28;20022;-67
2022/01/16 04:20:59;;;;;;;71.25;36.75;;;;;;;-142.75;100.00;78954.81;5031308;28;20071;-68
2022/01/16 04:23:25;;;;;;;71.28;37.15;;;;;;;-142.75;100.00;78941.03;5031170;28;20025;-68
2022/01/16 04:25:50;;;;;;;69.53;37.28;;;;;;;-142.75;100.00;78931.19;5031252;28;20029;-67
2022/01/16 04:28:15;;;;;;;68.10;37.22;;;;;;;-142.75;100.00;78929.22;5030837;28;20025;-67
2022/01/16 04:30:40;;;;;;;71.38;36.28;;;;;;;-142.75;100.00;78919.38;5031228;28;20021;-67
2022/01/16 04:33:06;;;;;;;66.32;35.70;;;;;;;-142.75;100.00;78925.28;5031006;28;20121;-68
2022/01/16 04:35:31;;;;;;;70.13;36.63;;;;;;;-142.75;100.00;78935.13;5031013;28;20025;-68
2022/01/16 04:37:56;;;;;;;71.17;37.43;;;;;;;-142.75;100.00;78923.31;5013074;28;20296;-67
2022/01/16 04:40:23;;;;;;;65.28;35.38;;;;;;;-142.75;100.00;78915.44;5030993;28;20033;-67
2022/01/16 04:45:32;;;;;;;67.83;35.83;;;;;;;-142.75;100.00;78897.72;5031251;28;20039;-68
2022/01/16 04:47:57;;;;;;;65.17;36.10;;;;;;;-142.75;100.00;78893.78;5030450;28;20096;-68
2022/01/16 04:50:25;;;;;;;64.90;34.17;;;;;;;-142.75;100.00;78887.84;5013196;28;20895;-68
2022/01/16 04:52:50;;;;;;;65.87;36.20;;;;;;;-142.75;100.00;78878.00;5013173;28;20761;-67
2022/01/16 04:55:16;;;;;;;63.00;34.87;;;;;;;-142.75;100.00;78874.06;5030869;28;20060;-68
2022/01/16 04:57:42;;;;;;;63.07;34.60;;;;;;;-142.75;100.00;78870.13;5013189;28;20268;-67
2022/01/16 05:00:14;;;;;;;62.13;33.80;;;;;;;-142.75;100.00;78866.19;5030578;28;20091;-68
2022/01/16 05:02:40;;;;;;;60.57;35.03;;;;;;;-142.75;100.00;78858.31;5030684;28;20060;-67
2022/01/16 05:05:06;;;;;;;62.00;33.17;;;;;;;-142.75;100.00;78874.06;5013078;28;20027;-67
2022/01/16 05:07:32;;;;;;;;;;;;;;;-142.75;100.00;78866.19;5031073;28;20025;-68
2022/01/16 05:09:57;;;;;;;59.10;31.70;;;;;;;-142.75;100.00;78850.44;5030518;28;20345;-67
2022/01/16 05:12:28;;;;;;;59.58;32.45;;;;;;;-142.75;100.00;78850.44;5030686;28;20040;-67
2022/01/16 05:17:37;;;;;;;59.43;32.03;;;;;;;-142.75;100.00;78852.41;5030574;28;20590;-67
2022/01/16 05:20:03;;;;;;;60.08;33.55;;;;;;;-142.75;100.00;78842.56;5012642;28;20108;-67
2022/01/16 05:22:29;;;;;;;;;;;;;;;-142.75;100.00;78834.69;5030913;28;20113;-67
2022/01/16 05:24:54;;;;;;;59.03;33.07;;;;;;;-142.75;100.00;78834.69;5012855;28;20011;-67
2022/01/16 05:27:19;;;;;;;59.63;31.20;;;;;;;-142.75;100.00;78832.72;5030486;28;20084;-67
2022/01/16 05:29:44;;;;;;;55.03;30.40;;;;;;;-142.75;100.00;78826.81;5030114;28;20033;-67
2022/01/16 05:32:10;;;;;;;57.05;31.73;;;;;;;-142.75;100.00;78822.88;5030557;28;20041;-67
2022/01/16 05:34:35;;;;;;;49.47;29.77;;;;;;;-142.75;100.00;78822.88;5030477;28;20025;-68
2022/01/16 05:37:00;;;;;;;52.88;31.45;;;;;;;-142.75;100.00;78824.84;5012667;28;20761;-67
2022/01/16 05:39:26;;;;;;;51.33;29.03;;;;;;;-142.75;100.00;78816.94;5030129;28;20052;-67
2022/01/16 05:41:51;;;;;;;57.15;30.25;;;;;;;-142.75;100.00;78816.94;5012720;28;20376;-67
2022/01/16 05:44:16;;;;;;;55.07;29.93;;;;;;;-142.75;100.00;78807.09;5030285;28;20112;-67
2022/01/16 05:46:41;;;;;;;55.15;29.83;;;;;;;-142.75;100.00;78813.00;5012273;28;20754;-67
2022/01/16 05:49:07;;;;;;;46.75;27.27;;;;;;;-142.75;100.00;78805.13;5030095;28;20029;-67
2022/01/16 05:51:33;;;;;;;52.35;28.25;;;;;;;-142.75;100.00;78807.09;5030275;28;20100;-67
2022/01/16 05:53:58;;;;;;;48.13;25.83;;;;;;;-142.75;100.00;78805.13;5030896;28;20029;-67
2022/01/16 05:56:24;;;;;;;50.03;25.80;;;;;;;-142.75;100.00;78803.16;5034001;28;20300;-67
2022/01/16 05:58:49;;;;;;;46.78;26.92;;;;;;;-142.75;100.00;78811.03;5015812;28;20268;-67
2022/01/16 06:01:14;;;;;;;45.72;25.25;;;;;;;-142.75;100.00;78803.16;5033999;28;20044;-66
2022/01/16 06:03:40;;;;;;;45.05;25.33;;;;;;;-142.75;100.00;78799.22;5033818;28;20030;-67
2022/01/16 06:06:05;;;;;;;45.77;26.00;;;;;;;-142.75;100.00;78805.13;5033855;28;20034;-68
2022/01/16 06:08:31;;;;;;;42.28;25.10;;;;;;;-142.75;100.00;78801.19;5033541;28;20064;-67
2022/01/16 06:10:56;;;;;;;45.67;24.77;;;;;;;-142.75;100.00;78793.31;5033844;28;20048;-67
2022/01/16 06:13:21;;;;;;;43.83;24.20;;;;;;;-142.75;100.00;78791.34;5015918;28;20017;-66
2022/01/16 06:15:47;;;;;;;41.08;22.65;;;;;;;-142.75;100.00;78787.41;5015887;28;20087;-67
2022/01/16 06:18:13;;;;;;;37.95;21.45;;;;;;;-142.75;100.00;78783.47;5015507;28;20099;-67
2022/01/16 06:20:38;;;;;;;;;;;;;;;-142.75;100.00;78767.72;5016524;28;20410;-67
2022/01/16 06:23:04;;;;;;;34.60;19.37;;;;;;;-142.75;100.00;78767.72;5015756;28;19920;-67
2022/01/16 06:25:29;;;;;;;35.97;19.92;;;;;;;-142.75;100.00;78761.81;5033517;28;20131;-67
2022/01/16 06:27:54;;;;;;;34.30;20.17;;;;;;;-142.75;100.00;78748.03;5033092;28;20608;-67
2022/01/16 06:30:21;;;;;;;28.02;16.02;;;;;;;-142.75;100.00;78744.09;5033369;28;20028;-66
2022/01/16 06:32:46;;;;;;;32.57;16.30;;;;;;;-142.75;100.00;78742.09;5033435;28;20083;-67
2022/01/16 06:35:15;;;;;;;26.48;15.45;;;;;;;-142.75;100.00;78740.13;5015569;28;20049;-67
2022/01/16 06:37:41;;;;;;;21.80;13.10;;;;;;;-142.75;100.00;78748.03;5015490;28;20028;-67
2022/01/16 06:40:07;;;;;;;19.13;10.60;;;;;;;-142.75;100.00;78744.09;5033013;28;20470;-67
2022/01/16 06:42:33;;;;;;;16.02;8.05;;;;;;;-142.75;100.00;78740.13;5033158;28;20032;-67
2022/01/16 06:44:58;;;;;;;13.02;7.32;;;;;;;-142.75;100.00;78732.25;5015314;28;20033;-67
2022/01/16 06:47:24;;;;;;;10.20;5.97;;;;;;;-142.75;100.00;78726.34;5033031;28;20529;-67
2022/01/16 06:49:49;;;;;;;11.97;6.90;;;;;;;-142.75;100.00;78716.50;5014951;28;20022;-67
2022/01/16 06:52:15;;;;;;;9.65;5.47;;;;;;;-142.75;100.00;78708.63;5015268;28;20284;-67
2022/01/16 06:54:40;;;;;;;8.02;5.32;;;;;;;-142.75;100.00;78712.56;5032903;28;20021;-67
2022/01/16 06:57:06;;;;;;;9.15;5.38;;;;;;;-142.75;100.00;78704.69;5032831;28;20037;-67
2022/01/16 06:59:34;;;;;;;10.40;5.75;;;;;;;-142.75;100.00;78692.88;5032512;28;20020;-67
2022/01/16 07:01:59;;;;;;;12.27;5.43;;;;;;;-142.75;100.00;78686.97;5032861;28;20029;-67
2022/01/16 07:04:26;;;;;;;9.77;5.33;;;;;;;-142.75;100.00;78679.09;5014831;28;20051;-66
2022/01/16 07:06:51;;;;;;;11.00;5.60;;;;;;;-142.75;100.00;78669.25;5032454;28;20272;-67
2022/01/16 07:09:17;;;;;;;13.43;6.30;;;;;;;-142.75;100.00;78661.34;5014645;28;20024;-67
2022/01/16 07:11:43;;;;;;;9.93;5.35;;;;;;;-142.75;100.00;78653.47;5032603;28;20025;-67
2022/01/16 07:14:08;;;;;;;14.88;6.15;;;;;;;-142.75;100.00;78653.47;5014837;28;20068;-67
2022/01/16 07:16:33;;;;;;;10.05;5.50;;;;;;;-142.75;100.00;78653.47;5032442;28;20025;-67
2022/01/16 07:18:58;;;;;;;9.60;5.07;;;;;;;-142.75;100.00;78651.50;5032268;28;20119;-67
2022/01/16 07:21:24;;;;;;;9.38;6.15;;;;;;;-142.75;100.00;78659.38;5032508;28;20021;-67
2022/01/16 07:23:49;;;;;;;10.23;5.33;;;;;;;-142.75;100.00;78663.31;5014633;28;20098;-67
2022/01/16 07:26:16;;;;;;;9.50;5.55;;;;;;;-142.75;100.00;78665.28;5032193;28;20272;-66
2022/01/16 07:28:42;;;;;;;13.87;5.50;;;;;;;-142.75;100.00;78665.28;5032030;28;20515;-67
2022/01/16 07:31:07;;;;;;;11.35;5.20;;;;;;;-142.75;100.00;78665.28;5032280;28;20057;-67
2022/01/16 07:33:32;;;;;;;7.88;5.00;;;;;;;-142.75;100.00;78657.41;5032274;28;20048;-67
2022/01/16 07:35:58;;;;;;;8.75;5.05;;;;;;;-142.75;100.00;78661.34;5014417;28;20065;-67
2022/01/16 07:38:23;;;;;;;11.57;5.25;;;;;;;-142.75;100.00;78665.28;5031812;28;20429;-67
2022/01/16 07:40:49;;;;;;;10.70;5.10;;;;;;;-142.75;100.00;78669.25;5032113;28;20040;-67
2022/01/16 07:43:14;;;;;;;12.05;5.50;;;;;;;-142.75;100.00;78671.22;5031891;28;20041;-67
2022/01/16 07:45:39;;;;;;;10.35;4.78;;;;;;;-142.75;100.00;78651.50;5032076;28;20514;-67
2022/01/16 07:48:07;;;;;;;9.82;5.30;;;;;;;-142.75;100.00;78653.47;5015173;23;20084;-68
2022/01/16 07:50:33;;;;;;;10.80;4.93;;;;;;;-142.75;100.00;78651.50;5010960;28;20033;-68
2022/01/16 07:52:58;;;;;;;;;;;;;;;-142.75;100.00;78641.66;4994937;28;20728;-69
2022/01/16 07:55:26;;;;;;;11.20;5.40;;;;;;;-142.75;100.00;78637.72;4994478;28;19913;-68
2022/01/16 07:57:52;;;;;;;11.33;5.27;;;;;;;-142.75;100.00;78647.56;5011569;28;20067;-68
2022/01/16 08:00:19;;;;;;;10.67;5.13;;;;;;;-142.75;100.00;78661.34;4993787;28;20033;-69
2022/01/16 08:02:44;;;;;;;10.20;5.77;;;;;;;-142.75;100.00;78655.44;5011887;28;20046;-68
2022/01/16 08:05:09;;;;;;;13.50;6.00;;;;;;;-142.75;100.00;78661.34;5011838;28;20056;-68
2022/01/16 08:07:35;;;;;;;12.95;7.22;;;;;;;-142.75;100.00;78655.44;4993974;28;20510;-68
2022/01/16 08:10:00;;;;;;;15.20;7.93;;;;;;;-142.75;100.00;78659.38;5011390;28;20045;-68
2022/01/16 08:12:25;;;;;;;19.47;8.37;;;;;;;-142.75;100.00;78661.34;5011603;28;20193;-69
2022/01/16 08:14:51;;;;;;;14.17;8.67;;;;;;;-142.75;100.00;78677.13;4994152;28;20754;-68
2022/01/16 08:17:16;;;;;;;24.27;10.55;;;;;;;-142.75;100.00;78679.09;4993253;28;20044;-68
2022/01/16 08:19:41;;;;;;;24.60;11.57;;;;;;;-142.75;100.00;78686.97;5011335;28;20021;-69
2022/01/16 08:22:07;;;;;;;24.85;13.35;;;;;;;-142.75;100.00;78690.91;5011699;28;20038;-68
2022/01/16 08:24:32;;;;;;;32.45;15.05;;;;;;;-142.75;100.00;78690.91;5011411;28;20079;-68
2022/01/16 08:26:58;;;;;;;34.60;16.27;;;;;;;-142.75;100.00;78681.06;4993785;28;20391;-69
2022/01/16 08:29:23;;;;;;;38.53;18.02;;;;;;;-142.75;100.00;78679.09;5011196;28;20506;-68
2022/01/16 08:31:48;;;;;;;36.30;18.10;;;;;;;-142.75;100.00;78688.94;5011500;28;20755;-68
2022/01/16 08:34:13;;;;;;;38.00;20.30;;;;;;;-142.75;100.00;78690.91;4993741;28;20026;-69
2022/01/16 08:36:39;;;;;;;44.80;21.93;;;;;;;-142.75;100.00;78700.75;4993688;28;20095;-68
2022/01/16 08:39:04;;;;;;;46.90;21.70;;;;;;;-142.75;100.00;78692.88;5011149;28;20832;-69
2022/01/16 08:41:31;;;;;;;43.25;21.38;;;;;;;-142.75;100.00;78700.75;5011135;28;20280;-68
2022/01/16 08:43:56;;;;;;;47.97;23.50;;;;;;;-142.75;100.00;78706.66;5011114;28;20539;-70
2022/01/16 08:46:22;;;;;;;47.13;22.80;;;;;;;-142.75;100.00;78704.69;5011119;28;20030;-68
2022/01/16 08:48:49;;;;;;;51.00;25.30;;;;;;;-142.75;100.00;78720.44;5010892;28;20273;-69
2022/01/16 08:51:14;;;;;;;52.43;25.73;;;;;;;-142.75;100.00;78726.34;5011222;28;20546;-68
2022/01/16 08:53:41;;;;;;;48.60;24.50;;;;;;;-142.75;100.00;78728.31;5011183;28;20042;-69
2022/01/16 08:56:06;;;;;;;54.05;26.80;;;;;;;-142.75;100.00;78746.03;4993319;28;20792;-68
2022/01/16 08:58:32;;;;;;;60.55;27.25;;;;;;;-142.75;100.00;78755.91;5010634;28;20029;-69
2022/01/16 09:00:57;;;;;;;62.63;26.77;;;;;;;-142.75;100.00;78751.97;5010998;28;20060;-69
2022/01/16 09:03:23;;;;;;;62.35;27.25;;;;;;;-142.75;100.00;78763.78;4993352;28;20026;-68
2022/01/16 09:05:49;;;;;;;64.75;29.35;;;;;;;-142.75;100.00;78771.66;5010897;28;20045;-68
2022/01/16 09:08:16;;;;;;;55.93;26.80;;;;;;;-142.75;100.00;78771.66;5010651;28;20456;-69
2022/01/16 09:10:41;;;;;;;62.63;27.73;;;;;;;-142.75;100.00;78789.38;5010851;28;20038;-69
2022/01/16 09:13:11;;;;;;;74.03;29.42;;;;;;;-142.75;100.00;78779.53;5010916;28;20117;-69
2022/01/16 09:15:39;;;;;;;67.80;28.93;;;;;;;-142.75;100.00;78789.38;5010864;28;20033;-69
2022/01/16 09:18:05;;;;;;;71.53;30.03;;;;;;;-142.75;100.00;78799.22;5010442;28;20407;-68
2022/01/16 09:20:32;;;;;;;69.18;30.83;;;;;;;-142.75;100.00;78807.09;4993339;28;20076;-69
2022/01/16 09:22:57;;;;;;;80.60;30.67;;;;;;;-142.75;100.00;78813.00;5010718;28;20034;-68
2022/01/16 09:25:22;;;;;;;73.03;32.23;;;;;;;-142.75;100.00;78807.09;4993150;28;20073;-68
2022/01/16 09:27:48;;;;;;;79.45;33.30;;;;;;;-142.75;100.00;78807.09;4993148;28;20290;-68
2022/01/16 09:30:14;;;;;;;78.32;33.10;;;;;;;-142.75;100.00;78805.13;5014533;28;20032;-69
2022/01/16 09:32:40;;;;;;;76.43;32.35;;;;;;;-142.75;100.00;78801.19;5014643;28;20083;-68
2022/01/16 09:35:07;;;;;;;75.57;33.53;;;;;;;-142.75;100.00;78803.16;5014599;28;20018;-68
2022/01/16 09:37:33;;;;;;;80.77;34.03;;;;;;;-142.75;100.00;78809.06;4996818;28;20026;-68
2022/01/16 09:39:59;;;;;;;78.55;33.28;;;;;;;-142.75;100.00;78809.06;5014242;28;20041;-68
2022/01/16 09:42:25;;;;;;;77.03;33.80;;;;;;;-142.75;100.00;78807.09;5014509;28;20021;-69
2022/01/16 09:44:51;;;;;;;86.18;34.97;;;;;;;-142.75;100.00;78818.91;5014269;28;20049;-68
2022/01/16 09:47:16;;;;;;;85.75;33.67;;;;;;;-142.75;100.00;78818.91;4996860;28;20061;-69
2022/01/16 09:49:42;;;;;;;85.05;35.63;;;;;;;-142.75;100.00;78820.88;4996486;28;20022;-69
2022/01/16 09:52:07;;;;;;;85.13;31.85;;;;;;;-142.75;100.00;78822.88;4996695;28;20034;-68
2022/01/16 09:54:36;;;;;;;89.00;33.40;;;;;;;-142.75;100.00;78836.66;4996547;28;20033;-68
2022/01/16 09:57:02;;;;;;;92.93;35.73;;;;;;;-142.75;100.00;78844.53;5014085;28;20495;-68
2022/01/16 09:59:27;;;;;;;93.50;34.45;;;;;;;-142.75;100.00;78856.34;5013955;28;20092;-68
2022/01/16 10:01:53;;;;;;;96.43;35.33;;;;;;;-142.75;100.00;78874.06;4996597;28;20104;-68
2022/01/16 10:04:30;;;;;;;89.38;35.13;;;;;;;-142.75;100.00;78864.22;4996443;28;20399;-68
2022/01/16 10:06:58;;;;;;;85.47;33.53;;;;;;;-142.75;100.00;78856.34;4996163;28;20029;-68
2022/01/16 10:09:23;;;;;;;90.57;34.40;;;;;;;-142.75;100.00;78868.16;5013642;28;20030;-68
2022/01/16 10:11:57;;;;;;;91.35;36.15;;;;;;;-142.75;100.00;78854.38;5013992;28;20037;-68
2022/01/16 10:14:45;;;;;;;85.50;33.27;;;;;;;-142.75;100.00;78868.16;4998692;28;20018;-67
2022/01/16 10:17:19;;;;;;;89.73;33.27;;;;;;;-142.75;100.00;78870.13;5013758;28;20029;-68
2022/01/16 10:19:56;;;;;;;85.90;33.70;;;;;;;-142.75;100.00;78870.13;5013447;28;20112;-68
2022/01/16 10:22:21;;;;;;;88.28;32.08;;;;;;;-142.75;100.00;78876.03;5013528;28;20037;-68
2022/01/16 10:24:46;;;;;;;84.43;32.77;;;;;;;-142.75;100.00;78866.19;4996010;28;20038;-69
2022/01/16 10:27:17;;;;;;;93.15;34.70;;;;;;;-142.75;100.00;78872.09;5013595;28;20022;-68
2022/01/16 10:29:51;;;;;;;91.90;33.03;;;;;;;-142.75;100.00;78858.31;5013330;28;20030;-68
2022/01/16 10:32:19;;;;;;;96.80;32.73;;;;;;;-142.75;100.00;78850.44;5012295;28;20029;-69
2022/01/16 10:34:47;;;;;;;88.57;34.70;;;;;;;-142.75;100.00;78846.50;5012665;28;20022;-69
2022/01/16 10:37:22;;;;;;;101.47;34.83;;;;;;;-142.75;100.00;78832.72;5012519;28;20022;-68
2022/01/16 10:39:58;;;;;;;86.70;34.17;;;;;;;-142.75;100.00;78822.88;4993583;28;20034;-68
2022/01/16 10:42:24;;;;;;;88.47;34.87;;;;;;;-142.75;100.00;78820.88;5012253;28;20044;-68
2022/01/16 10:44:56;;;;;;;98.15;36.05;;;;;;;-142.75;100.00;78822.88;5012344;28;20476;-69
2022/01/16 10:47:23;;;;;;;102.93;35.57;;;;;;;-142.75;100.00;78814.97;4994571;28;20046;-68
2022/01/16 10:49:59;;;;;;;103.77;36.27;;;;;;;-142.75;100.00;78809.06;5011865;28;20025;-69
2022/01/16 10:52:24;;;;;;;100.17;37.47;;;;;;;-142.75;100.00;78795.28;5012428;28;20037;-69
2022/01/16 10:54:49;;;;;;;105.22;38.13;;;;;;;-142.75;100.00;78809.06;5012045;28;20010;-68
2022/01/16 10:57:19;;;;;;;91.53;35.92;;;;;;;-142.75;100.00;78799.22;5012303;28;20511;-69
2022/01/16 10:59:44;;;;;;;104.90;38.30;;;;;;;-142.75;100.00;78787.41;5012120;28;20052;-68
2022/01/16 11:02:12;;;;;;;92.57;35.00;;;;;;;-142.75;100.00;78785.44;5012065;28;20484;-69
2022/01/16 11:04:37;;;;;;;100.43;37.23;;;;;;;-142.75;100.00;78789.38;4993908;28;20072;-69
2022/01/16 11:07:04;;;;;;;88.47;34.03;;;;;;;-142.75;100.00;78799.22;4992997;28;20027;-69
2022/01/16 11:09:31;;;;;;;86.17;34.77;;;;;;;-142.75;100.00;78783.47;4991994;28;20262;-68
2022/01/16 11:11:59;;;;;;;92.40;35.40;;;;;;;-142.75;100.00;78769.69;4974890;28;20038;-69
2022/01/16 11:14:24;;;;;;;97.73;36.33;;;;;;;-142.75;100.00;78759.84;4975246;28;20022;-69
2022/01/16 11:16:50;;;;;;;91.38;35.92;;;;;;;-142.75;100.00;78744.09;4991968;28;20399;-69
2022/01/16 11:19:15;;;;;;;83.60;34.88;;;;;;;-142.75;100.00;78751.97;4992047;28;20057;-70
2022/01/16 11:21:45;;;;;;;88.70;34.28;;;;;;;-142.75;100.00;78761.81;4991832;28;20030;-69
2022/01/16 11:26:43;;;;;;;89.20;35.43;;;;;;;-142.75;100.00;78755.91;4992260;28;20038;-69
2022/01/16 11:29:08;;;;;;;80.07;31.53;;;;;;;-142.75;100.00;78750.00;4990453;28;20034;-69
2022/01/16 11:31:33;;;;;;;80.28;33.58;;;;;;;-142.75;100.00;78744.09;4991830;28;20056;-69